Terminal Aerodrome Forecast
Issued by NWS

Home | Current Version | Previous Version | Text Only | Print | Product List | Glossary On
Versions: 1 2 3 4 5 6 7 8 9 10 11 12 13 14 15 16 17
000
FTUS41 KBTV 300500
TAFSLK
TAF
KSLK 300539Z 3006/3106 00000KT P6SM SKC
      TEMPO 3008/3012 3/4SM BR BKN001
     FM301200 20006KT P6SM SCT200
     FM301500 20010G20KT P6SM SCT200
     FM310000 22010KT P6SM BKN150=

USA.gov is the U.S. government's official web portal to all federal, state and local government web resources and services.